createdAt,value
2019-05-30T00:01:04.800Z,2.23
2019-05-30T00:03:34.887Z,1.83
2019-05-30T00:06:04.974Z,3.03
2019-05-30T00:08:35.060Z,2.40
2019-05-30T00:11:05.267Z,1.83
2019-05-30T00:13:35.396Z,1.90
2019-05-30T00:16:05.728Z,2.93
2019-05-30T00:18:36.036Z,2.33
2019-05-30T00:21:06.104Z,5.57
2019-05-30T00:23:36.199Z,2.03
2019-05-30T00:26:07.490Z,2.47
2019-05-30T00:28:37.706Z,3.87
2019-05-30T00:31:07.773Z,2.17
2019-05-30T00:33:37.870Z,2.20
2019-05-30T00:36:07.992Z,2.80
2019-05-30T00:38:38.284Z,2.93
2019-05-30T00:41:08.468Z,3.57
2019-05-30T00:43:38.586Z,5.27
2019-05-30T00:46:08.650Z,2.47
2019-05-30T00:48:38.703Z,3.80
2019-05-30T00:51:08.746Z,5.37
2019-05-30T00:53:38.832Z,1.90
2019-05-30T00:56:08.866Z,1.93
2019-05-30T00:58:38.982Z,3.20
2019-05-30T01:01:09.015Z,1.57
2019-05-30T01:03:39.120Z,1.53
2019-05-30T01:06:09.174Z,2.87
2019-05-30T01:08:39.250Z,1.40
2019-05-30T01:11:09.297Z,1.80
2019-05-30T01:13:39.362Z,3.53
2019-05-30T01:16:09.373Z,2.67
2019-05-30T01:18:39.492Z,2.60
2019-05-30T01:21:09.544Z,3.63
2019-05-30T01:23:44.004Z,2.50
2019-05-30T01:26:14.372Z,2.87
2019-05-30T01:28:44.445Z,1.87
2019-05-30T01:31:14.469Z,1.93
2019-05-30T01:33:44.519Z,2.43
2019-05-30T01:36:14.567Z,3.73
2019-05-30T01:38:44.656Z,1.67
2019-05-30T01:41:17.606Z,1.60
2019-05-30T01:43:46.650Z,2.13
2019-05-30T01:46:16.741Z,3.23
2019-05-30T01:48:47.196Z,3.03
2019-05-30T01:51:17.283Z,3.10
2019-05-30T01:53:47.409Z,1.27
2019-05-30T01:56:17.468Z,2.53
2019-05-30T01:58:47.589Z,1.83
2019-05-30T02:01:24.640Z,3.67
2019-05-30T02:03:49.577Z,2.77
2019-05-30T02:06:19.652Z,1.67
2019-05-30T02:08:49.801Z,1.57
2019-05-30T02:11:19.895Z,3.33
2019-05-30T02:13:50.731Z,1.77
2019-05-30T02:16:20.825Z,4.10
2019-05-30T02:18:51.036Z,3.27
2019-05-30T02:21:21.359Z,2.10
2019-05-30T02:23:51.420Z,6.23
2019-05-30T02:26:21.536Z,2.00
2019-05-30T02:28:51.656Z,2.03
2019-05-30T02:31:38.379Z,2.23
2019-05-30T02:33:53.552Z,1.83
2019-05-30T02:36:23.749Z,3.40
2019-05-30T02:38:53.927Z,2.87
2019-05-30T02:41:24.014Z,1.73
2019-05-30T02:43:54.125Z,2.97
2019-05-30T02:46:24.222Z,3.13
2019-05-30T02:48:59.027Z,1.60
2019-05-30T02:51:26.239Z,1.50
2019-05-30T02:53:56.332Z,2.37
2019-05-30T02:56:26.504Z,2.77
2019-05-30T02:58:56.640Z,1.73
2019-05-30T03:01:26.722Z,1.57
2019-05-30T03:03:56.854Z,2.97
2019-05-30T03:06:26.944Z,3.03
2019-05-30T03:08:57.195Z,4.63
2019-05-30T03:11:27.291Z,1.67
2019-05-30T03:13:57.399Z,1.63
2019-05-30T03:16:27.440Z,1.60
2019-05-30T03:18:57.578Z,2.43
2019-05-30T03:21:27.676Z,2.87
2019-05-30T03:23:57.740Z,3.77
2019-05-30T03:26:27.938Z,2.10
2019-05-30T03:28:57.977Z,1.50
2019-05-30T03:31:30.004Z,1.73
2019-05-30T03:34:00.405Z,2.13
2019-05-30T03:36:31.904Z,2.20
2019-05-30T03:39:03.248Z,2.63
2019-05-30T03:41:33.634Z,3.17
2019-05-30T03:44:04.354Z,3.87
2019-05-30T03:46:38.021Z,3.73
2019-05-30T03:49:12.898Z,2.60
2019-05-30T03:51:43.717Z,2.30
2019-05-30T03:54:15.780Z,2.33
2019-05-30T03:56:49.334Z,2.53
2019-05-30T03:59:34.363Z,2.30
2019-05-30T04:02:21.043Z,4.33
2019-05-30T04:04:55.773Z,2.00
2019-05-30T04:07:27.598Z,3.03
2019-05-30T04:09:58.539Z,2.13
2019-05-30T04:12:51.542Z,2.73
2019-05-30T04:15:30.972Z,3.07
2019-05-30T04:18:02.928Z,2.00
2019-05-30T04:20:33.046Z,2.60
2019-05-30T04:23:03.127Z,1.63
2019-05-30T04:25:33.158Z,2.00
2019-05-30T04:28:03.213Z,1.80
2019-05-30T04:30:33.246Z,2.50
2019-05-30T04:33:16.910Z,2.40
2019-05-30T04:35:35.266Z,1.87
2019-05-30T04:38:05.414Z,2.20
2019-05-30T04:40:35.476Z,2.50
2019-05-30T04:43:05.500Z,3.70
2019-05-30T04:45:35.657Z,1.90
2019-05-30T04:48:06.164Z,2.10
2019-05-30T04:50:36.491Z,3.80
2019-05-30T04:53:06.616Z,2.17
2019-05-30T04:55:36.759Z,2.07
2019-05-30T04:58:06.873Z,1.60
2019-05-30T05:00:36.909Z,2.77
2019-05-30T05:03:07.021Z,2.07
2019-05-30T05:05:37.132Z,2.93
2019-05-30T05:08:07.178Z,1.73
2019-05-30T05:10:37.244Z,1.80
2019-05-30T05:13:07.359Z,3.53
2019-05-30T05:15:37.453Z,1.20
2019-05-30T05:18:07.566Z,1.37
2019-05-30T05:20:37.631Z,1.60
2019-05-30T05:23:07.704Z,1.77
2019-05-30T05:25:37.958Z,2.07
2019-05-30T05:28:08.052Z,3.00
2019-05-30T05:30:38.104Z,1.83
2019-05-30T05:33:08.198Z,1.53
2019-05-30T05:35:38.263Z,2.00
2019-05-30T05:38:08.294Z,3.43
2019-05-30T05:40:38.351Z,1.87
2019-05-30T05:43:08.351Z,2.00
2019-05-30T05:45:38.851Z,1.43
2019-05-30T05:48:08.890Z,2.57
2019-05-30T05:50:38.930Z,4.83
2019-05-30T05:53:08.960Z,4.30
2019-05-30T05:55:39.018Z,1.50
2019-05-30T05:58:09.042Z,1.87
2019-05-30T06:00:39.095Z,2.03
2019-05-30T06:03:09.163Z,2.30
2019-05-30T06:05:52.203Z,1.53
2019-05-30T06:08:10.897Z,1.60
2019-05-30T06:10:41.012Z,1.90
2019-05-30T06:13:11.024Z,3.10
2019-05-30T06:15:41.086Z,1.43
2019-05-30T06:18:11.147Z,2.03
2019-05-30T06:20:41.200Z,2.73
2019-05-30T06:23:11.346Z,3.77
2019-05-30T06:25:41.397Z,2.90
2019-05-30T06:28:11.586Z,3.73
2019-05-30T06:30:41.670Z,2.67
2019-05-30T06:33:11.815Z,2.50
2019-05-30T06:35:41.880Z,2.17
2019-05-30T06:38:11.935Z,3.97
2019-05-30T06:40:42.206Z,1.80
2019-05-30T06:43:12.268Z,1.83
2019-05-30T06:45:42.344Z,2.40
2019-05-30T06:48:12.397Z,1.60
2019-05-30T06:50:42.417Z,1.20
2019-05-30T06:53:12.489Z,2.07
2019-05-30T06:55:42.514Z,2.20
2019-05-30T06:58:12.584Z,1.60
2019-05-30T07:00:42.605Z,2.93
2019-05-30T07:03:12.721Z,1.30
2019-05-30T07:05:43.372Z,2.27
2019-05-30T07:08:13.661Z,1.80
2019-05-30T07:10:43.875Z,1.93
2019-05-30T07:13:14.972Z,2.53
2019-05-30T07:15:45.013Z,2.90
2019-05-30T07:18:15.129Z,2.53
2019-05-30T07:20:45.183Z,1.70
2019-05-30T07:23:15.226Z,2.07
2019-05-30T07:25:45.275Z,3.17
2019-05-30T07:28:15.355Z,3.37
2019-05-30T07:30:45.537Z,2.53
2019-05-30T07:33:15.584Z,3.40
2019-05-30T07:35:45.623Z,4.87
2019-05-30T07:38:15.679Z,3.10
2019-05-30T07:40:45.796Z,1.67
2019-05-30T07:43:15.854Z,2.27
2019-05-30T07:45:57.395Z,2.27
2019-05-30T07:48:17.623Z,1.50
2019-05-30T07:50:47.634Z,1.73
2019-05-30T07:53:17.686Z,1.93
2019-05-30T07:55:47.761Z,1.67
2019-05-30T07:58:17.825Z,1.70
2019-05-30T08:00:47.840Z,2.40
2019-05-30T08:03:17.934Z,2.53
2019-05-30T08:05:47.966Z,1.77
2019-05-30T08:08:18.019Z,3.73
2019-05-30T08:10:48.096Z,2.90
2019-05-30T08:13:18.155Z,2.53
2019-05-30T08:15:48.277Z,2.47
2019-05-30T08:18:18.381Z,3.43
2019-05-30T08:20:48.481Z,3.83
2019-05-30T08:23:18.546Z,3.67
2019-05-30T08:25:48.570Z,2.80
2019-05-30T08:28:18.624Z,1.90
2019-05-30T08:30:48.853Z,3.25
2019-05-30T08:33:21.500Z,1.93
2019-05-30T08:35:50.662Z,1.83
2019-05-30T08:38:20.709Z,1.70
2019-05-30T08:40:50.737Z,2.20
2019-05-30T08:43:20.825Z,2.85
2019-05-30T08:45:50.916Z,2.67
2019-05-30T08:48:21.023Z,2.20
2019-05-30T08:50:51.071Z,3.65
2019-05-30T08:53:21.134Z,3.27
2019-05-30T08:55:51.223Z,2.00
2019-05-30T08:58:21.348Z,1.90
2019-05-30T09:00:51.450Z,4.58
2019-05-30T09:03:21.514Z,3.15
2019-05-30T09:06:02.686Z,3.10
2019-05-30T09:08:23.316Z,1.80
2019-05-30T09:10:53.371Z,3.90
2019-05-30T09:13:23.427Z,5.05
2019-05-30T09:15:53.463Z,2.60
2019-05-30T09:18:23.505Z,1.50
2019-05-30T09:20:53.568Z,2.37
2019-05-30T09:23:23.628Z,2.77
2019-05-30T09:25:53.690Z,2.20
2019-05-30T09:28:23.742Z,2.37
2019-05-30T09:30:53.836Z,2.35
2019-05-30T09:33:23.924Z,2.92
2019-05-30T09:35:54.067Z,2.15
2019-05-30T09:38:24.121Z,3.72
2019-05-30T09:40:54.179Z,5.17
2019-05-30T09:43:24.272Z,4.70
2019-05-30T09:45:54.377Z,2.75
2019-05-30T09:48:24.411Z,2.45
2019-05-30T09:50:54.495Z,1.15
2019-05-30T09:53:24.506Z,7.50
2019-05-30T09:55:54.591Z,1.55
2019-05-30T09:58:24.616Z,3.70
2019-05-30T10:00:54.686Z,2.62
2019-05-30T10:03:24.791Z,2.75
2019-05-30T10:05:54.892Z,3.20
2019-05-30T10:08:24.924Z,1.87
2019-05-30T10:10:54.985Z,3.35
2019-05-30T10:13:25.147Z,1.62
2019-05-30T10:15:55.203Z,3.52
2019-05-30T10:18:25.258Z,3.10
2019-05-30T10:20:55.310Z,2.22
2019-05-30T10:23:25.351Z,2.65
2019-05-30T10:25:55.434Z,1.42
2019-05-30T10:28:25.466Z,3.25
2019-05-30T10:30:58.925Z,1.52
2019-05-30T10:33:27.370Z,1.90
2019-05-30T10:35:57.498Z,2.45
2019-05-30T10:38:27.569Z,1.95
2019-05-30T10:40:57.638Z,1.95
2019-05-30T10:43:27.665Z,2.17
2019-05-30T10:45:57.750Z,3.58
2019-05-30T10:48:27.792Z,4.13
2019-05-30T10:50:57.858Z,1.87
2019-05-30T10:53:27.894Z,2.17
2019-05-30T10:55:57.974Z,1.95
2019-05-30T10:58:28.017Z,1.52
2019-05-30T11:00:58.372Z,3.15
2019-05-30T11:03:28.909Z,1.47
2019-05-30T11:07:01.273Z,1.95
2019-05-30T11:09:19.585Z,3.45
2019-05-30T11:11:50.783Z,1.35
2019-05-30T11:14:20.855Z,2.37
2019-05-30T11:16:51.720Z,2.33
2019-05-30T11:19:22.705Z,2.05
2019-05-30T11:21:54.558Z,3.22
2019-05-30T11:24:24.731Z,3.95
2019-05-30T11:26:55.567Z,6.25
2019-05-30T11:29:26.538Z,1.70
2019-05-30T11:31:57.017Z,1.60
2019-05-30T11:34:27.116Z,2.33
2019-05-30T11:36:57.345Z,1.60
2019-05-30T11:39:27.462Z,4.78
2019-05-30T11:41:57.706Z,1.75
2019-05-30T11:44:27.851Z,2.12
2019-05-30T11:46:57.934Z,2.20
2019-05-30T11:49:27.976Z,3.87
2019-05-30T11:51:58.063Z,3.55
2019-05-30T11:54:28.147Z,3.25
2019-05-30T11:56:58.284Z,3.47
2019-05-30T11:59:28.633Z,1.80
2019-05-30T12:01:58.721Z,1.87
2019-05-30T12:04:28.797Z,1.35
2019-05-30T12:06:58.958Z,2.95
2019-05-30T12:09:28.959Z,2.92
2019-05-30T12:11:59.311Z,2.58
2019-05-30T12:14:29.428Z,1.95
2019-05-30T12:16:59.531Z,1.65
2019-05-30T12:19:29.644Z,2.67
2019-05-30T12:21:59.974Z,1.57
2019-05-30T12:24:30.183Z,1.90
2019-05-30T12:27:00.234Z,2.55
2019-05-30T12:29:30.295Z,1.77
2019-05-30T12:32:01.824Z,2.05
2019-05-30T12:34:32.163Z,2.87
2019-05-30T12:37:02.810Z,2.17
2019-05-30T12:39:32.968Z,3.33
2019-05-30T12:42:03.440Z,2.87
2019-05-30T12:44:33.571Z,3.83
2019-05-30T12:47:05.779Z,3.42
2019-05-30T12:49:36.621Z,1.95
2019-05-30T12:52:06.732Z,2.15
2019-05-30T12:54:36.735Z,4.80
2019-05-30T12:57:07.080Z,1.77
2019-05-30T12:59:37.095Z,1.80
2019-05-30T13:02:07.325Z,2.92
2019-05-30T13:04:37.377Z,5.70
2019-05-30T13:07:07.720Z,2.40
2019-05-30T13:09:37.883Z,3.75
2019-05-30T13:12:07.926Z,4.28
2019-05-30T13:14:41.792Z,2.33
2019-05-30T13:17:12.148Z,2.17
2019-05-30T13:19:42.260Z,2.05
2019-05-30T13:22:12.311Z,2.00
2019-05-30T13:24:42.338Z,2.17
2019-05-30T13:27:12.419Z,2.65
2019-05-30T13:29:42.559Z,2.95
2019-05-30T13:32:12.565Z,3.05
2019-05-30T13:34:42.578Z,1.98
2019-05-30T13:47:49.654Z,4.12
2019-05-30T13:50:46.501Z,2.35
2019-05-30T13:53:15.636Z,3.02
2019-05-30T13:55:45.647Z,2.50
2019-05-30T13:58:15.740Z,5.20
2019-05-30T14:00:45.830Z,3.42
2019-05-30T14:03:15.929Z,2.35
2019-05-30T14:05:45.957Z,2.90
2019-05-30T14:08:16.820Z,3.40
2019-05-30T14:10:47.026Z,4.90
2019-05-30T14:13:17.084Z,3.08
2019-05-30T14:15:47.145Z,2.40
2019-05-30T14:18:17.220Z,3.55
2019-05-30T14:20:47.262Z,3.80
2019-05-30T14:23:17.339Z,3.80
2019-05-30T14:25:47.416Z,3.98
2019-05-30T14:28:17.474Z,2.77
2019-05-30T14:30:48.409Z,2.98
2019-05-30T14:33:18.482Z,2.70
2019-05-30T14:35:48.591Z,3.45
2019-05-30T14:38:18.700Z,2.50
2019-05-30T14:40:48.749Z,3.47
2019-05-30T14:43:18.842Z,4.35
2019-05-30T14:45:48.935Z,4.22
2019-05-30T14:48:19.003Z,3.15
2019-05-30T14:50:49.046Z,2.72
2019-05-30T14:53:19.114Z,2.85
2019-05-30T14:55:49.234Z,2.90
2019-05-30T14:58:19.314Z,5.83
2019-05-30T15:00:49.351Z,3.98
2019-05-30T15:03:19.413Z,5.10
2019-05-30T15:05:49.454Z,4.53
2019-05-30T15:08:19.530Z,4.75
2019-05-30T15:10:49.595Z,5.40
2019-05-30T15:13:19.642Z,2.95
2019-05-30T15:15:49.723Z,6.08
2019-05-30T15:18:19.788Z,3.50
2019-05-30T15:20:49.860Z,3.42
2019-05-30T15:23:19.937Z,3.80
2019-05-30T15:25:50.000Z,3.50
2019-05-30T15:28:20.103Z,5.10
2019-05-30T15:30:50.172Z,5.62
2019-05-30T15:33:20.202Z,4.58
2019-05-30T15:35:50.268Z,5.55
2019-05-30T15:38:20.342Z,4.53
2019-05-30T15:40:50.400Z,4.03
2019-05-30T15:43:20.483Z,4.50
2019-05-30T15:45:50.672Z,5.80
2019-05-30T15:48:20.725Z,5.78
2019-05-30T15:50:50.766Z,4.35
2019-05-30T15:53:20.795Z,6.22
2019-05-30T15:55:50.909Z,4.55
2019-05-30T15:58:21.012Z,4.35
2019-05-30T16:00:51.084Z,4.78
2019-05-30T16:03:21.126Z,4.85
2019-05-30T16:05:51.194Z,5.35
2019-05-30T16:08:47.001Z,5.10
2019-05-30T16:15:24.725Z,4.10
2019-05-30T16:17:54.759Z,5.08
2019-05-30T16:20:24.813Z,6.75
2019-05-30T16:22:54.914Z,4.72
2019-05-30T16:25:25.880Z,9.75
2019-05-30T16:27:56.041Z,5.33
2019-05-30T16:30:27.143Z,4.53
2019-05-30T16:32:57.257Z,4.90
2019-05-30T16:35:27.283Z,4.20
2019-05-30T16:37:57.340Z,4.20
2019-05-30T16:40:27.405Z,4.87
2019-05-30T16:42:57.482Z,4.12
2019-05-30T16:45:33.838Z,4.75
2019-05-30T16:48:03.908Z,5.80
2019-05-30T16:50:33.966Z,5.45
2019-05-30T16:53:04.027Z,4.80
2019-05-30T16:55:55.186Z,5.28
2019-05-30T16:58:25.808Z,8.05
2019-05-30T17:01:19.825Z,4.50
2019-05-30T17:03:48.629Z,5.15
2019-05-30T17:06:19.919Z,6.30
2019-05-30T17:08:50.124Z,5.53
2019-05-30T17:14:52.539Z,5.45
2019-05-30T17:18:13.519Z,6.95
2019-05-30T17:23:51.326Z,11.88
2019-05-30T17:26:21.391Z,8.60
2019-05-30T17:28:51.456Z,10.40
2019-05-30T17:31:21.861Z,7.42
2019-05-30T17:33:51.946Z,8.28
2019-05-30T17:36:22.155Z,7.25
2019-05-30T17:38:52.168Z,6.42
2019-05-30T17:41:22.734Z,8.08
2019-05-30T17:43:52.921Z,8.20
2019-05-30T17:46:23.399Z,7.62
2019-05-30T17:48:53.483Z,7.33
2019-05-30T17:51:23.780Z,9.55
2019-05-30T17:53:53.845Z,7.50
2019-05-30T17:56:24.061Z,9.00
2019-05-30T17:58:54.148Z,9.68
2019-05-30T18:01:24.240Z,9.90
2019-05-30T18:03:54.327Z,9.73
2019-05-30T18:06:24.484Z,10.00
2019-05-30T18:08:54.609Z,8.33
2019-05-30T18:11:24.998Z,9.55
2019-05-30T18:13:55.089Z,9.23
2019-05-30T18:16:25.238Z,8.80
2019-05-30T18:18:55.290Z,8.15
2019-05-30T18:21:25.479Z,8.88
2019-05-30T18:23:55.549Z,13.30
2019-05-30T18:26:25.883Z,9.60
2019-05-30T18:28:56.034Z,10.08
2019-05-30T18:31:26.090Z,7.72
2019-05-30T18:33:56.172Z,10.53
2019-05-30T18:36:26.518Z,9.63
2019-05-30T18:38:56.619Z,10.48
2019-05-30T18:41:26.712Z,9.03
2019-05-30T18:43:56.800Z,8.60
2019-05-30T18:46:27.083Z,9.88
2019-05-30T18:48:57.220Z,10.28
2019-05-30T18:51:28.155Z,8.38
2019-05-30T18:53:58.325Z,10.00
2019-05-30T18:56:28.748Z,8.50
2019-05-30T18:58:58.923Z,9.00
2019-05-30T19:01:29.648Z,8.35
2019-05-30T19:03:59.937Z,10.72
2019-05-30T19:06:30.091Z,8.93
2019-05-30T19:09:00.144Z,8.25
2019-05-30T19:11:34.551Z,10.03
2019-05-30T19:14:02.091Z,7.75
2019-05-30T19:16:32.448Z,8.93
2019-05-30T19:19:02.666Z,11.63
2019-05-30T19:21:34.051Z,8.33
2019-05-30T19:24:04.456Z,8.63
2019-05-30T19:26:34.739Z,10.58
2019-05-30T19:29:04.997Z,9.15
2019-05-30T19:31:35.122Z,11.28
2019-05-30T19:34:05.176Z,10.53
2019-05-30T19:36:35.270Z,10.10
2019-05-30T19:39:06.697Z,8.63
2019-05-30T19:41:53.797Z,12.58
2019-05-30T19:44:08.520Z,9.63
2019-05-30T19:46:38.597Z,8.98
2019-05-30T19:49:08.697Z,9.73
2019-05-30T19:51:39.247Z,9.50
2019-05-30T19:54:09.537Z,12.23
2019-05-30T19:56:42.024Z,9.80
2019-05-30T19:59:12.126Z,11.45
2019-05-30T20:01:42.192Z,11.25
2019-05-30T20:04:12.342Z,10.40
2019-05-30T20:06:42.520Z,13.58
2019-05-30T20:09:12.685Z,12.88
2019-05-30T20:11:42.739Z,12.15
2019-05-30T20:14:12.833Z,11.10
2019-05-30T20:16:42.950Z,14.25
2019-05-30T20:19:13.043Z,13.08
2019-05-30T20:21:43.115Z,14.58
2019-05-30T20:24:13.204Z,9.78
2019-05-30T20:26:43.331Z,14.15
2019-05-30T20:29:13.634Z,11.88
2019-05-30T20:31:43.773Z,12.60
2019-05-30T20:34:14.518Z,11.68
2019-05-30T20:36:44.575Z,14.35
2019-05-30T20:39:14.665Z,14.10
2019-05-30T20:41:44.738Z,12.15
2019-05-30T20:44:14.823Z,19.00
2019-05-30T20:46:44.932Z,11.97
2019-05-30T20:49:14.987Z,13.83
2019-05-30T20:51:45.091Z,11.68
2019-05-30T20:54:15.202Z,12.13
2019-05-30T20:56:48.738Z,11.70
2019-05-30T20:59:17.103Z,13.48
2019-05-30T21:01:47.315Z,12.10
2019-05-30T21:04:17.404Z,13.30
2019-05-30T21:06:48.757Z,18.15
2019-05-30T21:09:28.848Z,12.85
2019-05-30T21:11:53.699Z,15.28
2019-05-30T21:14:27.498Z,12.07
2019-05-30T21:16:57.616Z,12.65
2019-05-30T21:19:27.753Z,13.22
2019-05-30T21:21:57.828Z,10.93
2019-05-30T21:24:27.940Z,13.68
2019-05-30T21:26:58.004Z,12.25
2019-05-30T21:29:28.080Z,11.53
2019-05-30T21:31:58.120Z,11.50
2019-05-30T21:34:28.268Z,12.30
2019-05-30T21:36:58.485Z,12.95
2019-05-30T21:39:28.594Z,12.13
2019-05-30T21:41:58.742Z,11.53
2019-05-30T21:44:28.812Z,13.98
2019-05-30T21:46:58.897Z,10.35
2019-05-30T21:49:29.243Z,11.70
2019-05-30T21:51:59.406Z,11.75
2019-05-30T21:54:29.670Z,12.93
2019-05-30T21:56:59.695Z,14.43
2019-05-30T21:59:29.731Z,12.00
2019-05-30T22:02:00.067Z,11.03
2019-05-30T22:04:30.219Z,12.37
2019-05-30T22:07:00.331Z,11.70
2019-05-30T22:09:30.465Z,13.50
2019-05-30T22:12:00.532Z,13.13
2019-05-30T22:14:30.630Z,12.53
2019-05-30T22:17:00.735Z,13.95
2019-05-30T22:19:30.847Z,12.85
2019-05-30T22:22:01.023Z,10.45
2019-05-30T22:24:31.110Z,11.10
2019-05-30T22:27:01.222Z,12.70
2019-05-30T22:29:31.342Z,14.18
2019-05-30T22:32:02.325Z,13.72
2019-05-30T22:34:32.760Z,13.65
2019-05-30T22:37:02.907Z,13.22
2019-05-30T22:39:33.258Z,12.23
2019-05-30T22:42:03.399Z,12.68
2019-05-30T22:44:33.499Z,13.30
2019-05-30T22:47:03.572Z,13.22
2019-05-30T22:49:33.690Z,12.37
2019-05-30T22:52:03.848Z,11.45
2019-05-30T22:54:33.982Z,13.35
2019-05-30T22:57:04.131Z,14.98
2019-05-30T22:59:34.158Z,15.03
2019-05-30T23:02:04.231Z,12.37
2019-05-30T23:04:34.351Z,17.73
2019-05-30T23:07:04.449Z,13.32
2019-05-30T23:09:34.499Z,13.15
2019-05-30T23:12:04.542Z,14.78
2019-05-30T23:14:35.045Z,14.47
2019-05-30T23:17:05.202Z,14.25
2019-05-30T23:19:35.263Z,13.93
2019-05-30T23:22:05.440Z,13.43
2019-05-30T23:24:35.518Z,15.90
2019-05-30T23:27:08.263Z,13.88
2019-05-30T23:29:37.328Z,15.40
2019-05-30T23:32:07.370Z,15.25
2019-05-30T23:34:37.488Z,13.53
2019-05-30T23:37:07.573Z,14.20
2019-05-30T23:39:37.615Z,14.38
2019-05-30T23:42:07.670Z,14.30
2019-05-30T23:44:37.683Z,14.05
2019-05-30T23:47:07.814Z,14.20
2019-05-30T23:49:37.846Z,16.62
2019-05-30T23:52:07.916Z,13.53
2019-05-30T23:54:37.964Z,14.47
2019-05-30T23:57:08.066Z,14.45
2019-05-30T23:59:38.100Z,14.73
